createdAt,value
2023-02-18T00:03:54.308Z,96900.47
2023-02-18T00:08:56.745Z,96896.47
2023-02-18T00:14:01.968Z,96901.19
2023-02-18T00:19:07.160Z,96911.09
2023-02-18T00:24:09.822Z,96901.66
2023-02-18T00:29:11.646Z,96896.47
2023-02-18T00:34:13.753Z,96892.25
2023-02-18T00:39:15.557Z,96882.88
2023-02-18T00:44:17.064Z,96882.63
2023-02-18T00:49:18.641Z,96886.44
2023-02-18T00:54:20.104Z,96882.59
2023-02-18T00:59:21.602Z,96878.84
2023-02-18T01:04:23.110Z,96878.34
2023-02-18T01:09:24.572Z,96876.44
2023-02-18T01:14:26.115Z,96878.50
2023-02-18T01:19:27.686Z,96865.97
2023-02-18T01:24:29.231Z,96866.66
2023-02-18T01:29:30.882Z,96855.38
2023-02-18T01:34:32.442Z,96842.84
2023-02-18T01:39:34.083Z,96835.03
2023-02-18T01:44:35.618Z,96836.56
2023-02-18T01:49:38.842Z,96830.63
2023-02-18T01:54:44.611Z,96844.41
2023-02-18T01:59:50.525Z,96833.09
2023-02-18T02:04:52.853Z,96836.84
2023-02-18T02:09:57.976Z,96841.72
2023-02-18T02:15:17.790Z,96840.25
2023-02-18T02:20:37.628Z,96833.00
2023-02-18T02:25:56.811Z,96822.19
2023-02-18T02:31:08.861Z,96832.91
2023-02-18T02:36:23.288Z,96827.16
2023-02-18T02:41:33.915Z,96824.53
2023-02-18T02:46:41.132Z,96820.66
2023-02-18T02:51:48.979Z,96807.66
2023-02-18T02:56:50.596Z,96790.34
2023-02-18T03:02:14.093Z,96793.34
2023-02-18T03:07:42.305Z,96790.72
2023-02-18T03:12:58.055Z,96774.16
2023-02-18T03:18:30.180Z,96760.41
2023-02-18T03:24:04.169Z,96755.25
2023-02-18T03:29:10.243Z,96757.69
2023-02-18T03:34:16.841Z,96764.13
2023-02-18T03:39:20.649Z,96767.63
2023-02-18T03:44:24.907Z,96770.06
2023-02-18T03:49:26.451Z,96758.53
2023-02-18T03:54:28.054Z,96762.75
2023-02-18T03:59:29.917Z,96757.25
2023-02-18T04:04:31.455Z,96759.69
2023-02-18T04:09:32.982Z,96771.34
2023-02-18T04:14:34.534Z,96766.69
2023-02-18T04:19:36.179Z,96764.53
2023-02-18T04:24:37.687Z,96766.31
2023-02-18T04:29:39.189Z,96774.97
2023-02-18T04:34:40.682Z,96780.69
2023-02-18T04:39:42.319Z,96773.50
2023-02-18T04:44:45.183Z,96769.84
2023-02-18T04:49:47.801Z,96762.88
2023-02-18T04:54:49.409Z,96758.94
2023-02-18T04:59:50.910Z,96751.25
2023-02-18T05:04:52.437Z,96760.56
2023-02-18T05:09:53.891Z,96750.47
2023-02-18T05:14:55.336Z,96743.47
2023-02-18T05:19:57.348Z,96746.41
2023-02-18T05:24:58.874Z,96745.34
2023-02-18T05:30:00.822Z,96751.97
2023-02-18T05:35:02.383Z,96749.56
2023-02-18T05:40:04.353Z,96752.34
2023-02-18T05:45:06.055Z,96745.47
2023-02-18T05:50:08.324Z,96743.38
2023-02-18T05:55:09.926Z,96737.84
2023-02-18T06:00:12.109Z,96752.59
2023-02-18T06:05:13.591Z,96749.31
2023-02-18T06:10:15.055Z,96746.19
2023-02-18T06:15:16.553Z,96753.16
2023-02-18T06:20:18.163Z,96750.56
2023-02-18T06:25:19.616Z,96747.09
2023-02-18T06:30:22.281Z,96742.69
2023-02-18T06:35:25.048Z,96743.13
2023-02-18T06:40:26.694Z,96740.03
2023-02-18T06:45:28.258Z,96741.94
2023-02-18T06:50:29.760Z,96742.97
2023-02-18T06:55:31.251Z,96747.44
2023-02-18T07:00:32.858Z,96748.88
2023-02-18T07:05:34.612Z,96740.88
2023-02-18T07:10:36.314Z,96738.50
2023-02-18T07:15:37.862Z,96752.59
2023-02-18T07:20:39.379Z,96750.97
2023-02-18T07:25:40.937Z,96744.41
2023-02-18T07:30:42.424Z,96743.41
2023-02-18T07:35:43.909Z,96751.56
2023-02-18T07:40:45.539Z,96750.19
2023-02-18T07:45:47.497Z,96754.06
2023-02-18T07:50:50.141Z,96754.38
2023-02-18T07:55:51.680Z,96761.03
2023-02-18T08:00:54.516Z,96750.16
2023-02-18T08:05:56.116Z,96752.84
2023-02-18T08:11:02.771Z,96745.97
2023-02-18T08:16:11.773Z,96748.19
2023-02-18T08:21:13.978Z,96757.16
2023-02-18T08:26:15.844Z,96755.31
2023-02-18T08:31:21.164Z,96752.66
2023-02-18T08:36:23.386Z,96762.59
2023-02-18T08:41:24.912Z,96764.38
2023-02-18T08:46:35.633Z,96756.13
2023-02-18T08:51:37.532Z,96760.25
2023-02-18T08:56:39.321Z,96755.31
2023-02-18T09:01:40.822Z,96754.78
2023-02-18T09:06:42.382Z,96750.75
2023-02-18T09:11:44.879Z,96739.78
2023-02-18T09:16:46.361Z,96737.47
2023-02-18T09:21:47.891Z,96737.47
2023-02-18T09:26:49.408Z,96734.28
2023-02-18T09:31:51.035Z,96730.44
2023-02-18T09:36:52.836Z,96729.47
2023-02-18T09:41:57.648Z,96732.69
2023-02-18T09:47:13.293Z,96722.06
2023-02-18T09:52:21.551Z,96709.03
2023-02-18T09:57:25.975Z,96719.81
2023-02-18T10:02:28.477Z,96708.50
2023-02-18T10:07:35.140Z,96705.28
2023-02-18T10:12:36.716Z,96702.34
2023-02-18T10:17:38.682Z,96693.84
2023-02-18T10:22:40.427Z,96696.34
2023-02-18T10:27:42.185Z,96702.63
2023-02-18T10:32:44.984Z,96710.34
2023-02-18T10:38:07.420Z,96707.41
2023-02-18T10:43:08.821Z,96698.84
2023-02-18T10:48:25.430Z,96689.06
2023-02-18T10:53:34.284Z,96681.06
2023-02-18T10:58:43.076Z,96688.75
2023-02-18T11:03:46.273Z,96688.44
2023-02-18T11:08:53.627Z,96674.38
2023-02-18T11:13:57.789Z,96677.31
2023-02-18T11:18:59.327Z,96659.16
2023-02-18T11:24:15.051Z,96658.84
2023-02-18T11:29:24.723Z,96656.97
2023-02-18T11:34:33.418Z,96646.81
2023-02-18T11:39:35.669Z,96643.09
2023-02-18T11:44:43.144Z,96646.47
2023-02-18T11:49:58.404Z,96636.75
2023-02-18T11:54:59.853Z,96621.25
2023-02-18T12:00:14.979Z,96610.72
2023-02-18T12:05:22.893Z,96586.31
2023-02-18T12:10:36.689Z,96575.44
2023-02-18T12:16:07.738Z,96568.31
2023-02-18T12:21:12.185Z,96567.81
2023-02-18T12:26:41.104Z,96541.22
2023-02-18T12:32:07.155Z,96542.28
2023-02-18T12:37:49.188Z,96531.34
2023-02-18T12:43:08.812Z,96520.94
2023-02-18T12:48:16.124Z,96527.00
2023-02-18T12:53:53.877Z,96506.28
2023-02-18T12:59:06.532Z,96498.75
2023-02-18T13:04:45.531Z,96491.34
2023-02-18T13:10:19.617Z,96479.53
2023-02-18T13:15:30.073Z,96468.94
2023-02-18T13:20:45.013Z,96468.63
2023-02-18T13:25:49.293Z,96455.13
2023-02-18T13:31:26.904Z,96450.19
2023-02-18T13:36:33.425Z,96444.16
2023-02-18T13:41:40.942Z,96448.56
2023-02-18T13:46:56.677Z,96444.00
2023-02-18T13:52:00.614Z,96445.75
2023-02-18T13:57:05.190Z,96430.84
2023-02-18T14:02:25.238Z,96437.53
2023-02-18T14:07:26.798Z,96435.00
2023-02-18T14:12:41.988Z,96428.34
2023-02-18T14:17:47.297Z,96433.59
2023-02-18T14:22:50.737Z,96431.19
2023-02-18T14:27:54.529Z,96428.75
2023-02-18T14:32:59.687Z,96418.38
2023-02-18T14:38:28.798Z,96427.63
2023-02-18T14:43:48.768Z,96417.78
2023-02-18T14:48:52.890Z,96416.31
2023-02-18T14:53:54.398Z,96412.94
2023-02-18T14:59:00.181Z,96414.09
2023-02-18T15:04:03.467Z,96405.91
2023-02-18T15:09:19.060Z,96416.44
2023-02-18T15:14:33.734Z,96402.09
2023-02-18T15:19:41.725Z,96409.88
2023-02-18T15:24:43.865Z,96411.66
2023-02-18T15:29:50.374Z,96400.63
2023-02-18T15:34:57.476Z,96407.69
2023-02-18T15:39:58.980Z,96407.22
2023-02-18T15:45:05.418Z,96407.72
2023-02-18T15:50:15.683Z,96412.91
2023-02-18T15:55:36.715Z,96403.22
2023-02-18T16:00:47.448Z,96406.91
2023-02-18T16:05:49.721Z,96398.56
2023-02-18T16:10:57.359Z,96403.59
2023-02-18T16:16:01.045Z,96401.38
2023-02-18T16:21:46.251Z,96405.13
2023-02-18T16:26:50.955Z,96403.59
2023-02-18T16:31:52.718Z,96392.59
2023-02-18T16:36:54.761Z,96401.31
2023-02-18T16:41:56.299Z,96395.81
2023-02-18T16:46:57.818Z,96402.72
2023-02-18T16:52:05.635Z,96401.19
2023-02-18T16:57:07.139Z,96410.19
2023-02-18T17:02:18.754Z,96410.72
2023-02-18T17:07:20.261Z,96405.22
2023-02-18T17:12:21.729Z,96414.63
2023-02-18T17:17:23.163Z,96411.06
2023-02-18T17:22:24.605Z,96419.00
2023-02-18T17:27:26.118Z,96426.56
2023-02-18T17:32:27.605Z,96427.19
2023-02-18T17:37:29.107Z,96430.41
2023-02-18T17:42:30.593Z,96432.84
2023-02-18T17:47:32.057Z,96436.94
2023-02-18T17:52:33.520Z,96438.03
2023-02-18T17:57:35.009Z,96438.53
2023-02-18T18:02:36.490Z,96444.56
2023-02-18T18:07:37.995Z,96448.94
2023-02-18T18:12:39.829Z,96442.38
2023-02-18T18:17:41.273Z,96437.53
2023-02-18T18:22:43.049Z,96452.53
2023-02-18T18:27:44.923Z,96444.94
2023-02-18T18:32:46.476Z,96451.41
2023-02-18T18:37:47.975Z,96459.88
2023-02-18T18:42:49.612Z,96453.75
2023-02-18T18:47:51.647Z,96453.28
2023-02-18T18:52:53.974Z,96463.41
2023-02-18T18:57:56.264Z,96466.53
2023-02-18T19:02:58.617Z,96466.97
2023-02-18T19:08:00.778Z,96468.06
2023-02-18T19:13:04.931Z,96471.63
2023-02-18T19:18:07.463Z,96469.81
2023-02-18T19:23:09.077Z,96475.81
2023-02-18T19:28:11.209Z,96481.38
2023-02-18T19:33:13.972Z,96487.16
2023-02-18T19:38:17.259Z,96490.34
2023-02-18T19:43:18.776Z,96498.19
2023-02-18T19:48:20.248Z,96500.16
2023-02-18T19:53:21.683Z,96496.91
2023-02-18T19:58:23.136Z,96500.56
2023-02-18T20:03:24.674Z,96510.63
2023-02-18T20:08:26.237Z,96515.78
2023-02-18T20:13:27.860Z,96512.72
2023-02-18T20:18:29.364Z,96515.34
2023-02-18T20:23:30.875Z,96509.47
2023-02-18T20:28:32.378Z,96511.28
2023-02-18T20:33:33.895Z,96514.91
2023-02-18T20:38:36.833Z,96512.84
2023-02-18T20:43:38.347Z,96519.66
2023-02-18T20:48:40.289Z,96520.63
2023-02-18T20:53:43.173Z,96517.41
2023-02-18T20:58:44.757Z,96526.75
2023-02-18T21:03:47.642Z,96511.25
2023-02-18T21:08:51.025Z,96517.38
2023-02-18T21:13:55.139Z,96512.34
2023-02-18T21:18:56.620Z,96514.28
2023-02-18T21:23:58.052Z,96510.28
2023-02-18T21:29:01.644Z,96510.28
2023-02-18T21:34:05.323Z,96507.53
2023-02-18T21:39:08.884Z,96503.78
2023-02-18T21:44:10.398Z,96497.34
2023-02-18T21:49:11.915Z,96500.78
2023-02-18T21:54:15.890Z,96496.72
2023-02-18T21:59:20.389Z,96494.38
2023-02-18T22:04:21.979Z,96492.00
2023-02-18T22:09:23.762Z,96488.94
2023-02-18T22:14:25.353Z,96490.72
2023-02-18T22:19:26.869Z,96490.31
2023-02-18T22:24:29.328Z,96485.00
2023-02-18T22:29:32.176Z,96489.69
2023-02-18T22:34:33.670Z,96489.19
2023-02-18T22:39:35.154Z,96482.44
2023-02-18T22:44:36.605Z,96476.28
2023-02-18T22:49:38.060Z,96463.06
2023-02-18T22:54:39.583Z,96466.63
2023-02-18T22:59:41.090Z,96463.53
2023-02-18T23:04:42.684Z,96471.06
2023-02-18T23:09:44.326Z,96461.72
2023-02-18T23:14:46.245Z,96465.84
2023-02-18T23:19:50.049Z,96462.81
2023-02-18T23:24:51.578Z,96461.66
2023-02-18T23:29:53.299Z,96463.53
2023-02-18T23:34:54.779Z,96461.22
2023-02-18T23:39:56.219Z,96466.22
2023-02-18T23:44:57.665Z,96465.59
2023-02-18T23:49:59.149Z,96466.88
2023-02-18T23:55:00.725Z,96473.19
